createdAt,value
2022-12-31T00:05:32.072Z,99817.63
2022-12-31T00:15:37.423Z,99815.59
2022-12-31T00:25:41.146Z,99823.16
2022-12-31T00:35:47.385Z,99816.56
2022-12-31T00:45:53.538Z,99819.34
2022-12-31T00:56:03.331Z,99816.13
2022-12-31T01:06:08.024Z,99834.59
2022-12-31T01:16:15.444Z,99836.94
2022-12-31T01:26:20.501Z,99853.63
2022-12-31T01:36:27.709Z,99852.88
2022-12-31T01:46:39.756Z,99843.06
2022-12-31T01:56:46.633Z,99851.84
2022-12-31T02:06:56.191Z,99849.00
2022-12-31T02:17:11.143Z,99846.59
2022-12-31T02:27:24.750Z,99827.19
2022-12-31T02:37:33.160Z,99843.84
2022-12-31T02:47:53.771Z,99843.16
2022-12-31T02:58:10.297Z,99837.34
2022-12-31T03:08:23.080Z,99825.31
2022-12-31T03:18:56.906Z,99835.50
2022-12-31T03:29:00.613Z,99834.69
2022-12-31T03:39:05.730Z,99849.19
2022-12-31T03:49:09.477Z,99858.50
2022-12-31T03:59:14.680Z,99881.06
2022-12-31T04:09:18.332Z,99875.78
2022-12-31T04:19:23.831Z,99883.72
2022-12-31T04:29:30.100Z,99886.00
2022-12-31T04:39:36.739Z,99888.81
2022-12-31T04:49:40.360Z,99902.38
2022-12-31T04:59:46.371Z,99906.66
2022-12-31T05:09:50.014Z,99907.88
2022-12-31T05:19:54.962Z,99923.16
2022-12-31T05:29:58.627Z,99916.66
2022-12-31T05:40:04.443Z,99905.63
2022-12-31T05:50:09.227Z,99896.66
2022-12-31T06:00:16.213Z,99918.50
2022-12-31T06:10:19.927Z,99936.47
2022-12-31T06:20:25.028Z,99955.94
2022-12-31T06:30:28.602Z,99970.72
2022-12-31T06:40:33.648Z,99980.78
2022-12-31T06:50:37.467Z,99988.78
2022-12-31T07:00:51.020Z,100000.06
2022-12-31T07:11:02.386Z,99996.56
2022-12-31T07:21:14.362Z,100002.66
2022-12-31T07:31:31.710Z,100005.09
2022-12-31T07:41:56.169Z,100012.78
2022-12-31T07:52:00.778Z,100014.56
2022-12-31T08:02:16.151Z,100049.47
2022-12-31T08:12:21.265Z,100062.22
2022-12-31T08:23:01.356Z,100060.13
2022-12-31T08:33:17.106Z,100082.22
2022-12-31T08:43:38.718Z,100080.34
2022-12-31T08:53:43.336Z,100069.06
2022-12-31T09:04:07.345Z,100068.25
2022-12-31T09:14:31.995Z,100070.25
2022-12-31T09:24:38.492Z,100082.25
2022-12-31T09:34:50.158Z,100087.31
2022-12-31T09:45:34.353Z,100102.81
2022-12-31T09:55:45.935Z,100109.84
2022-12-31T10:06:15.940Z,100104.00
2022-12-31T10:16:52.385Z,100105.94
2022-12-31T10:27:19.648Z,100107.50
2022-12-31T10:37:30.077Z,100118.16
2022-12-31T10:48:17.035Z,100128.69
2022-12-31T10:58:50.937Z,100138.25
2022-12-31T11:09:57.776Z,100140.03
2022-12-31T11:20:39.587Z,100149.25
2022-12-31T11:31:03.454Z,100149.28
2022-12-31T11:41:12.389Z,100146.00
2022-12-31T11:51:50.838Z,100123.03
2022-12-31T12:02:03.301Z,100107.97
2022-12-31T12:12:09.671Z,100115.00
2022-12-31T12:22:15.776Z,100089.56
2022-12-31T12:32:24.829Z,100093.13
2022-12-31T12:42:30.058Z,100087.03
2022-12-31T12:53:04.950Z,100079.25
2022-12-31T13:03:30.996Z,100072.34
2022-12-31T13:13:48.182Z,100079.19
2022-12-31T13:23:58.125Z,100069.66
2022-12-31T13:34:09.420Z,100071.41
2022-12-31T13:44:18.091Z,100041.53
2022-12-31T13:54:36.642Z,100039.91
2022-12-31T14:04:48.115Z,100050.00
2022-12-31T14:15:02.977Z,100038.13
2022-12-31T14:25:19.989Z,100076.88
2022-12-31T14:35:38.567Z,100105.78
2022-12-31T14:45:56.072Z,100094.81
2022-12-31T14:56:04.228Z,100082.03
2022-12-31T15:06:36.459Z,100088.53
2022-12-31T15:16:51.333Z,100106.41
2022-12-31T15:26:58.030Z,100110.47
2022-12-31T15:37:05.723Z,100115.25
2022-12-31T15:47:17.450Z,100119.59
2022-12-31T15:57:31.723Z,100112.53
2022-12-31T16:07:35.574Z,100129.94
2022-12-31T16:17:41.807Z,100121.94
2022-12-31T16:27:49.691Z,100123.97
2022-12-31T16:38:13.124Z,100127.03
2022-12-31T16:48:19.625Z,100131.03
2022-12-31T16:58:28.821Z,100136.72
2022-12-31T17:08:42.278Z,100140.34
2022-12-31T17:18:47.871Z,100143.38
2022-12-31T17:28:57.468Z,100130.91
2022-12-31T17:39:18.435Z,100144.84
2022-12-31T17:49:27.996Z,100143.16
2022-12-31T17:59:34.515Z,100130.72
2022-12-31T18:09:38.372Z,100159.34
2022-12-31T18:20:04.073Z,100156.63
2022-12-31T18:30:09.784Z,100164.41
2022-12-31T18:40:15.424Z,100177.81
2022-12-31T18:50:19.488Z,100172.56
2022-12-31T19:00:24.563Z,100172.81
2022-12-31T19:10:29.079Z,100195.44
2022-12-31T19:20:34.196Z,100194.38
2022-12-31T19:30:38.110Z,100199.59
2022-12-31T19:40:43.272Z,100208.75
2022-12-31T19:50:49.620Z,100203.81
2022-12-31T20:01:02.496Z,100195.75
2022-12-31T20:11:12.090Z,100203.22
2022-12-31T20:21:19.998Z,100216.06
2022-12-31T20:31:27.084Z,100217.84
2022-12-31T20:41:32.615Z,100219.69
2022-12-31T20:51:36.742Z,100223.41
2022-12-31T21:02:11.668Z,100205.59
2022-12-31T21:12:23.709Z,100230.75
2022-12-31T21:22:30.077Z,100225.97
2022-12-31T21:32:33.746Z,100246.69
2022-12-31T21:42:38.907Z,100254.34
2022-12-31T21:52:42.577Z,100261.97
2022-12-31T22:03:05.502Z,100263.91
2022-12-31T22:13:09.437Z,100285.53
2022-12-31T22:23:14.534Z,100294.97
2022-12-31T22:33:18.410Z,100326.00
2022-12-31T22:43:23.431Z,100342.34
2022-12-31T22:53:27.013Z,100353.78
2022-12-31T23:03:33.514Z,100349.34
2022-12-31T23:13:58.660Z,100352.59
2022-12-31T23:24:04.461Z,100355.38
2022-12-31T23:34:10.340Z,100353.56
2022-12-31T23:44:15.382Z,100357.63
2022-12-31T23:54:19.032Z,100367.63
